Lone Tree, IA

11:26 AM CDT on March 30, 2020 (GMT -0500)
Iowa City Municipal | | Change Station

Elev 666 ft 41.64 °N, 91.55 °W | Updated 1 hour ago

Clear
Clear
48 °F
Feels Like 48 °F
N
4
Wind Variable Wind from Variable

Today
High -- | Low -- °F
--% Chance of Precip.
Yesterday
High -- | Low -- °F
Precip. -- in
Pressure 30.26 in
Visibility 10.0 miles
Clouds Clear
Dew Point 35 °F
Humidity 61%
Rainfall 0.00 in
Snow Depth Not available.
6:51 AM 7:29 PM
Waxing Crescent, 33% visible
METAR KIOW 301452Z AUTO VRB03KT 10SM CLR 09/02 A3025 RMK AO2 SLP247 T00890017 51018
Pressure 30.26 in
Visibility 10.0 miles
Clouds Clear
Dew Point 35 °F
Humidity 61%
Rainfall 0.00 in
Snow Depth Not available.
6:51 AM 7:29 PM
Waxing Crescent, 33% visible
METAR KIOW 301452Z AUTO VRB03KT 10SM CLR 09/02 A3025 RMK AO2 SLP247 T00890017 51018

Get Severe Weather Alerts

Thanks for signing up!

Be on the lookout for a verification email in your inbox.

You'll start receiving the daily forecast at 6 AM.

×

10-Day Weather Forecast

Almanac

Astronomy

Mar. 30, 2020 Rise Set
Actual Time
Civil Twilight
Nautical Twilight
Astronomical Twilight
Moon
Length of Visible Light
Length of Day
Tomorrow will be .
, % of the Moon is Illuminated

Today's Extremes

State Highs State Lows

Community

WunderPhotos

Category 6

Welcome to Category 6. This is the collective home for Weather Underground's featured writeups by Dr. Jeff Masters (right), Bob Henson (left), Chris Burt, and other regular contributors.

Nearby

Air Quality

  Air Quality AQ Index Pollutant
Not available.

Snow Depth

Station Depth Elevation

Earthquake Activity

City Distance Mag. Time & Date
Minimum magnitude displayed is 2.5.

Coastal Water Temperatures

Place Temperature

Stations

Nearby Weather Stations

Station Location Temp. Windchill Dew Point Humidity Wind Precip. Elev Updated Type
                   

Watches & Warnings

There are currently no watches in effect.